Winslow Park, Kentucky
Current Conditions -  °F | °C
As of 6:55 AM on Wednesday 22 Oct 2014 (Local Time) from K5M9 Reporting Station
Haze Haze  
Wind Chill: 37°   Ceiling: Unl
Heat Index: 40°   Visibility: 5mi
Dew Point: 40°   Wind: 5mph
Humidity: 99%   Direction: 50°NE
Pressure: 30.26"   Gusts: NA
Location:  37.3359°N, 88.1049°W
Report Text: K5M9 221155Z AUTO 05004KT 5SM BR CLR 05/04 A3026 RMK AO2 T00450043 10077 20040
Loading
Personal Weather Stations






























Interactive Weather Map
Tropical Storm Tracking
New forecast layout! Learn more

10-Day Weather Forecast

Advertisements
Track Severe Weather on mobile